INFORMAÇÕES METEOROLÓGICAS
METAR FOR SBUA
ADDS - METARS form results

(1518 UTC 14 December 2018)
Data provider http://aviationweather.gov/metar/data/
 
METAR text: SBUA 141500Z 31003KT 9999 SCT010 SCT100 28/25 Q1014
Conditions at: SBUA (SAO GABRIEL CACH, BR) observed 1500 UTC 14 December 2018
Temperature: 28.0°C (82°F)
Dewpoint: 25.0°C (77°F) [RH = 84%]
Pressure (altimeter): 29.94 inches Hg (1014.0 mb)
Winds: from the NW (310 degrees) at 3 MPH (3 knots; 1.5 m/s)
Visibility: 6 or more miles (10+ km)
Ceiling: at least 12,000 feet AGL
Clouds: scattered clouds at 1000 feet AGL
scattered clouds at 10000 feet AGL
Weather: no significant weather observed at this time

 MAPA DO AEROPORTO

 INFORMAÇÕES DA PISTA
Pista 5 Tamanho da pista 8530 ft Largura da pista 148 ft
Elevação da pista 0 ft Ranhura da pista 0 ft Proa da pista 0
Pista 23 Tamanho da pista 8530 ft Largura da pista 148 ft
Elevação da pista 0 ft Ranhura da pista 0 ft Proa da pista 0

 FREQUÊNCIAS DO AEROPORTO
Tipo AFIS Nome GABRIEL RD Frequência 125.7 MHZ

 AUXÍLIOS DE NAVEGAÇÃO PRÓXIMOS AO AEROPORTO
Tipo VOR-DME Nome Gabriel Frequência 115400 KHZ
Tipo NDB Nome Gabriel Frequência 215 KHZ





Powered by Virtual Airlines Manager [v2.6.2]